Terminal Aerodrome Forecast
Issued by NWS

Home | Current Version | Previous Version | Text Only | Print | Product List | Glossary On
Versions: 1 2 3 4 5 6 7 8 9 10 11 12 13 14 15 16 17 18
000
FTAK31 PAJN 301900 AAA
TAFAYA
TAF AMD
PAYA 301934Z 3020/0118 10003KT P6SM SCT020 OVC040
      TEMPO 3020/3022 6SM -RA BR SCT005 OVC025
     FM302200 14008KT P6SM -RA SCT015 OVC025
     FM010300 15005KT P6SM -RA BKN015 OVC025
     FM011200 12004KT P6SM VCSH BKN015 OVC025
      AMD LTD TO CLD VIS AND WIND 0101/0110=

USA.gov is the U.S. government's official web portal to all federal, state and local government web resources and services.